createdAt,value
2019-03-09T00:00:57.439Z,8.60
2019-03-09T00:02:06.028Z,44.70
2019-03-09T00:03:14.250Z,61.33
2019-03-09T00:04:22.442Z,33.27
2019-03-09T00:05:30.623Z,7.57
2019-03-09T00:06:39.081Z,11.63
2019-03-09T00:07:47.227Z,14.63
2019-03-09T00:08:55.346Z,14.80
2019-03-09T00:10:03.331Z,8.07
2019-03-09T00:11:11.236Z,46.87
2019-03-09T00:12:19.523Z,48.27
2019-03-09T00:13:28.339Z,7.67
2019-03-09T00:14:36.366Z,8.17
2019-03-09T00:15:44.429Z,20.57
2019-03-09T00:16:53.012Z,7.60
2019-03-09T00:18:01.006Z,5.63
2019-03-09T00:19:08.918Z,45.90
2019-03-09T00:20:17.034Z,49.63
2019-03-09T00:21:25.472Z,13.70
2019-03-09T00:22:33.560Z,9.53
2019-03-09T00:23:43.758Z,8.87
2019-03-09T00:24:53.831Z,13.87
2019-03-09T00:26:11.432Z,7.80
2019-03-09T00:27:29.818Z,67.63
2019-03-09T00:28:54.716Z,16.07
2019-03-09T00:30:22.848Z,9.07
2019-03-09T00:31:30.828Z,25.40
2019-03-09T00:32:39.070Z,16.60
2019-03-09T00:33:47.905Z,5.33
2019-03-09T00:34:56.048Z,7.47
2019-03-09T00:36:04.136Z,8.90
2019-03-09T00:37:12.360Z,60.37
2019-03-09T00:38:20.434Z,53.50
2019-03-09T00:39:28.822Z,11.20
2019-03-09T00:40:37.000Z,16.30
2019-03-09T00:41:45.266Z,8.13
2019-03-09T00:42:53.327Z,9.03
2019-03-09T00:44:01.769Z,6.63
2019-03-09T00:45:10.508Z,24.07
2019-03-09T00:46:18.753Z,76.40
2019-03-09T00:47:26.952Z,47.87
2019-03-09T00:48:35.083Z,7.93
2019-03-09T00:49:42.985Z,5.57
2019-03-09T00:50:51.481Z,3.30
2019-03-09T00:51:59.238Z,10.97
2019-03-09T00:53:07.278Z,8.97
2019-03-09T00:54:15.518Z,63.87
2019-03-09T00:55:23.652Z,72.33
2019-03-09T00:56:31.793Z,7.63
2019-03-09T00:57:40.026Z,24.57
2019-03-09T00:58:48.132Z,14.30
2019-03-09T00:59:59.846Z,7.23
2019-03-09T01:01:07.926Z,11.70
2019-03-09T01:02:16.123Z,66.23
2019-03-09T01:03:24.415Z,104.50
2019-03-09T01:04:32.868Z,11.37
2019-03-09T01:05:41.195Z,11.10
2019-03-09T01:06:49.339Z,15.27
2019-03-09T01:07:57.383Z,12.57
2019-03-09T01:09:07.956Z,8.40
2019-03-09T01:10:17.480Z,72.43
2019-03-09T01:11:26.155Z,56.37
2019-03-09T01:12:34.084Z,8.20
2019-03-09T01:13:42.195Z,5.30
2019-03-09T01:14:50.366Z,8.67
2019-03-09T01:15:58.479Z,14.73
2019-03-09T01:17:06.602Z,8.60
2019-03-09T01:18:14.816Z,59.30
2019-03-09T01:19:23.281Z,73.83
2019-03-09T01:20:31.390Z,36.73
2019-03-09T01:21:39.805Z,19.77
2019-03-09T01:22:47.760Z,20.23
2019-03-09T01:23:56.165Z,7.40
2019-03-09T01:25:04.235Z,35.17
2019-03-09T01:26:12.539Z,15.87
2019-03-09T01:27:20.373Z,62.03
2019-03-09T01:28:28.338Z,67.80
2019-03-09T01:29:36.664Z,7.63
2019-03-09T01:30:44.877Z,7.43
2019-03-09T01:31:53.078Z,5.57
2019-03-09T01:33:00.972Z,25.63
2019-03-09T01:34:08.935Z,11.27
2019-03-09T01:35:17.464Z,68.40
2019-03-09T01:36:26.091Z,75.20
2019-03-09T01:37:34.133Z,31.97
2019-03-09T01:38:42.273Z,5.83
2019-03-09T01:39:50.254Z,22.17
2019-03-09T01:40:58.237Z,6.67
2019-03-09T01:42:06.149Z,4.67
2019-03-09T01:43:14.479Z,34.67
2019-03-09T01:44:22.758Z,82.47
2019-03-09T01:45:30.968Z,72.47
2019-03-09T01:46:39.425Z,5.97
2019-03-09T01:47:47.467Z,12.27
2019-03-09T01:48:55.448Z,4.00
2019-03-09T01:50:04.659Z,14.77
2019-03-09T01:51:13.121Z,14.67
2019-03-09T01:52:21.837Z,69.43
2019-03-09T01:53:36.773Z,67.60
2019-03-09T01:54:42.618Z,27.93
2019-03-09T01:55:50.538Z,4.00
2019-03-09T01:56:59.907Z,3.90
2019-03-09T01:58:07.987Z,11.47
2019-03-09T01:59:15.979Z,23.03
2019-03-09T02:00:24.188Z,57.93
2019-03-09T02:01:32.148Z,58.17
2019-03-09T02:02:40.342Z,19.83
2019-03-09T02:03:48.181Z,11.03
2019-03-09T02:04:56.088Z,34.37
2019-03-09T02:06:04.094Z,9.83
2019-03-09T02:07:12.040Z,5.60
2019-03-09T02:08:20.314Z,44.23
2019-03-09T02:09:28.486Z,67.90
2019-03-09T02:10:36.588Z,27.73
2019-03-09T02:11:44.522Z,10.50
2019-03-09T02:12:52.428Z,14.20
2019-03-09T02:14:00.591Z,10.73
2019-03-09T02:15:14.997Z,7.40
2019-03-09T02:16:23.415Z,54.90
2019-03-09T02:17:31.395Z,54.40
2019-03-09T02:18:39.409Z,31.10
2019-03-09T02:19:47.495Z,9.40
2019-03-09T02:20:55.866Z,13.80
2019-03-09T02:22:06.953Z,12.57
2019-03-09T02:23:14.862Z,4.63
2019-03-09T02:24:22.926Z,48.70
2019-03-09T02:25:34.161Z,67.90
2019-03-09T02:26:42.479Z,11.47
2019-03-09T02:27:50.782Z,11.33
2019-03-09T02:29:00.866Z,14.83
2019-03-09T02:30:16.990Z,17.63
2019-03-09T02:31:25.026Z,60.77
2019-03-09T02:32:32.869Z,56.40
2019-03-09T02:33:41.525Z,32.33
2019-03-09T02:34:49.400Z,18.30
2019-03-09T02:35:57.438Z,12.50
2019-03-09T02:37:05.413Z,8.77
2019-03-09T02:38:14.930Z,9.10
2019-03-09T02:39:24.717Z,56.57
2019-03-09T02:40:32.669Z,58.43
2019-03-09T02:41:40.767Z,9.27
2019-03-09T02:42:49.048Z,6.90
2019-03-09T02:43:56.900Z,8.43
2019-03-09T02:45:07.641Z,7.97
2019-03-09T02:46:15.938Z,19.60
2019-03-09T02:47:24.273Z,55.43
2019-03-09T02:48:32.195Z,56.60
2019-03-09T02:49:40.051Z,6.83
2019-03-09T02:50:55.664Z,14.93
2019-03-09T02:52:03.780Z,18.30
2019-03-09T02:53:11.804Z,6.87
2019-03-09T02:54:19.617Z,25.20
2019-03-09T02:55:27.483Z,51.10
2019-03-09T02:56:35.522Z,48.73
2019-03-09T02:57:43.703Z,13.63
2019-03-09T02:58:51.998Z,21.23
2019-03-09T03:00:01.139Z,8.00
2019-03-09T03:01:13.908Z,12.70
2019-03-09T03:02:26.256Z,44.63
2019-03-09T03:03:34.288Z,56.87
2019-03-09T03:04:42.306Z,9.67
2019-03-09T03:05:50.482Z,13.50
2019-03-09T03:06:58.804Z,17.43
2019-03-09T03:08:07.201Z,12.53
2019-03-09T03:09:15.258Z,9.33
2019-03-09T03:10:23.598Z,62.43
2019-03-09T03:11:31.959Z,61.17
2019-03-09T03:12:40.326Z,28.33
2019-03-09T03:13:48.489Z,9.40
2019-03-09T03:14:57.017Z,11.10
2019-03-09T03:16:05.198Z,11.80
2019-03-09T03:17:13.109Z,12.23
2019-03-09T03:18:21.158Z,44.40
2019-03-09T03:19:29.483Z,76.37
2019-03-09T03:20:37.504Z,42.80
2019-03-09T03:21:45.622Z,24.67
2019-03-09T03:22:53.885Z,13.73
2019-03-09T03:24:01.892Z,10.70
2019-03-09T03:25:10.191Z,17.40
2019-03-09T03:26:18.191Z,6.63
2019-03-09T03:27:26.438Z,73.30
2019-03-09T03:28:35.794Z,63.07
2019-03-09T03:29:43.709Z,13.40
2019-03-09T03:30:51.873Z,13.63
2019-03-09T03:32:00.042Z,13.50
2019-03-09T03:33:08.164Z,21.50
2019-03-09T03:34:16.306Z,28.30
2019-03-09T03:35:24.635Z,69.13
2019-03-09T03:36:32.756Z,65.30
2019-03-09T03:37:40.659Z,7.97
2019-03-09T03:38:48.576Z,9.77
2019-03-09T03:39:56.572Z,11.73
2019-03-09T03:41:04.845Z,14.10
2019-03-09T03:42:13.005Z,17.13
2019-03-09T03:43:21.066Z,36.73
2019-03-09T03:44:29.064Z,79.60
2019-03-09T03:45:37.146Z,64.03
2019-03-09T03:46:45.368Z,13.77
2019-03-09T03:47:53.540Z,37.53
2019-03-09T03:49:03.729Z,12.83
2019-03-09T03:50:11.482Z,31.40
2019-03-09T03:51:20.036Z,22.03
2019-03-09T03:52:28.287Z,73.10
2019-03-09T03:53:36.263Z,75.20
2019-03-09T03:54:44.199Z,35.70
2019-03-09T03:55:52.439Z,11.43
2019-03-09T03:57:00.518Z,19.13
2019-03-09T03:58:09.114Z,11.67
2019-03-09T03:59:17.120Z,10.47
2019-03-09T04:00:25.028Z,79.57
2019-03-09T04:01:33.359Z,86.87
2019-03-09T04:02:41.528Z,9.30
2019-03-09T04:03:49.572Z,7.17
2019-03-09T04:04:57.579Z,10.27
2019-03-09T04:06:06.052Z,16.80
2019-03-09T04:07:14.788Z,10.07
2019-03-09T04:08:23.023Z,40.97
2019-03-09T04:09:31.130Z,81.93
2019-03-09T04:10:39.585Z,48.87
2019-03-09T04:11:47.652Z,13.53
2019-03-09T04:12:56.395Z,13.13
2019-03-09T04:14:04.689Z,8.63
2019-03-09T04:15:13.084Z,21.63
2019-03-09T04:16:21.009Z,16.23
2019-03-09T04:17:28.979Z,67.47
2019-03-09T04:18:36.974Z,57.43
2019-03-09T04:19:44.887Z,6.23
2019-03-09T04:20:52.661Z,28.93
2019-03-09T04:22:00.658Z,5.53
2019-03-09T04:23:08.650Z,10.57
2019-03-09T04:24:16.760Z,13.97
2019-03-09T04:25:24.857Z,51.13
2019-03-09T04:26:32.959Z,64.13
2019-03-09T04:27:41.169Z,33.70
2019-03-09T04:28:49.176Z,4.77
2019-03-09T04:29:57.759Z,19.77
2019-03-09T04:31:05.889Z,8.93
2019-03-09T04:32:14.037Z,10.93
2019-03-09T04:33:22.178Z,17.30
2019-03-09T04:34:30.320Z,66.00
2019-03-09T04:35:38.188Z,90.27
2019-03-09T04:36:46.314Z,5.87
2019-03-09T04:37:54.414Z,12.10
2019-03-09T04:39:02.707Z,4.03
2019-03-09T04:40:12.951Z,8.20
2019-03-09T04:41:21.049Z,10.67
2019-03-09T04:42:28.800Z,55.50
2019-03-09T04:43:36.692Z,68.47
2019-03-09T04:44:44.699Z,14.27
2019-03-09T04:45:52.459Z,9.10
2019-03-09T04:47:00.182Z,18.77
2019-03-09T04:48:08.022Z,8.97
2019-03-09T04:49:15.868Z,16.47
2019-03-09T04:50:24.116Z,24.83
2019-03-09T04:51:31.877Z,65.43
2019-03-09T04:52:39.610Z,58.20
2019-03-09T04:53:47.429Z,12.00
2019-03-09T04:54:55.347Z,9.20
2019-03-09T04:56:03.542Z,21.63
2019-03-09T04:57:11.396Z,16.27
2019-03-09T04:58:19.436Z,13.40
2019-03-09T04:59:27.826Z,59.63
2019-03-09T05:00:36.062Z,72.07
2019-03-09T05:01:44.335Z,29.33
2019-03-09T05:02:52.179Z,22.77
2019-03-09T05:04:27.225Z,13.30
2019-03-09T05:05:35.133Z,63.33
2019-03-09T05:06:43.249Z,40.50
2019-03-09T05:07:58.423Z,12.60
2019-03-09T05:09:47.260Z,8.63
2019-03-09T05:11:00.165Z,9.73
2019-03-09T05:12:08.009Z,8.83
2019-03-09T05:13:26.136Z,13.33
2019-03-09T05:14:34.512Z,57.57
2019-03-09T05:15:42.554Z,38.20
2019-03-09T05:16:50.312Z,14.50
2019-03-09T05:17:58.082Z,9.50
2019-03-09T05:19:06.003Z,15.53
2019-03-09T05:20:13.976Z,10.17
2019-03-09T05:21:21.850Z,12.37
2019-03-09T05:22:29.982Z,54.47
2019-03-09T05:23:37.894Z,62.37
2019-03-09T05:24:45.897Z,16.70
2019-03-09T05:25:54.047Z,18.13
2019-03-09T05:27:02.247Z,27.27
2019-03-09T05:28:10.368Z,18.13
2019-03-09T05:29:18.374Z,24.63
2019-03-09T05:30:41.789Z,33.30
2019-03-09T05:31:49.708Z,10.57
2019-03-09T05:32:57.416Z,24.67
2019-03-09T05:34:05.701Z,24.67
2019-03-09T05:35:13.916Z,12.40
2019-03-09T05:36:22.136Z,11.73
2019-03-09T05:37:30.337Z,75.87
2019-03-09T05:38:38.351Z,62.03
2019-03-09T05:39:46.328Z,25.07
2019-03-09T05:40:54.337Z,11.63
2019-03-09T05:42:02.543Z,14.40
2019-03-09T05:43:11.084Z,12.67
2019-03-09T05:44:18.919Z,17.97
2019-03-09T05:45:27.000Z,30.10
2019-03-09T05:46:35.034Z,61.23
2019-03-09T05:47:43.164Z,65.90
2019-03-09T05:48:51.672Z,5.27
2019-03-09T05:49:59.868Z,4.83
2019-03-09T05:51:08.281Z,10.83
2019-03-09T05:52:31.937Z,10.37
2019-03-09T05:53:39.968Z,61.13
2019-03-09T05:54:48.226Z,19.30
2019-03-09T05:55:56.139Z,9.17
2019-03-09T05:57:04.232Z,11.40
2019-03-09T05:58:12.125Z,9.90
2019-03-09T05:59:20.009Z,11.33
2019-03-09T06:00:29.062Z,23.87
2019-03-09T06:01:37.195Z,62.20
2019-03-09T06:02:45.057Z,32.53
2019-03-09T06:03:52.924Z,5.87
2019-03-09T06:05:00.812Z,16.13
2019-03-09T06:06:08.738Z,7.73
2019-03-09T06:07:16.793Z,13.23
2019-03-09T06:08:24.875Z,11.10
2019-03-09T06:09:32.954Z,62.10
2019-03-09T06:10:40.966Z,59.37
2019-03-09T06:11:49.086Z,6.90
2019-03-09T06:12:57.008Z,9.30
2019-03-09T06:14:05.166Z,4.13
2019-03-09T06:15:13.165Z,8.50
2019-03-09T06:16:21.001Z,11.30
2019-03-09T06:17:28.910Z,26.17
2019-03-09T06:18:36.990Z,66.40
2019-03-09T06:19:44.958Z,54.10
2019-03-09T06:20:52.893Z,13.90
2019-03-09T06:22:00.958Z,9.63
2019-03-09T06:23:09.030Z,7.87
2019-03-09T06:24:17.022Z,9.23
2019-03-09T06:25:25.142Z,17.47
2019-03-09T06:26:33.554Z,59.77
2019-03-09T06:27:41.835Z,72.97
2019-03-09T06:28:49.944Z,13.73
2019-03-09T06:29:57.890Z,25.17
2019-03-09T06:31:05.839Z,23.80
2019-03-09T06:32:36.227Z,8.03
2019-03-09T06:33:44.739Z,68.33
2019-03-09T06:34:52.896Z,12.23
2019-03-09T06:36:10.812Z,13.83
2019-03-09T06:37:23.065Z,24.37
2019-03-09T06:38:50.384Z,41.80
2019-03-09T06:39:59.038Z,10.67
2019-03-09T06:41:11.063Z,21.23
2019-03-09T06:42:32.408Z,15.70
2019-03-09T06:43:40.309Z,66.80
2019-03-09T06:44:48.802Z,33.90
2019-03-09T06:45:56.848Z,17.57
2019-03-09T06:47:04.691Z,17.47
2019-03-09T06:48:12.971Z,13.83
2019-03-09T06:49:21.487Z,21.13
2019-03-09T06:50:29.389Z,16.27
2019-03-09T06:51:37.671Z,79.80
2019-03-09T06:52:45.769Z,70.97
2019-03-09T06:53:54.338Z,17.30
2019-03-09T06:55:02.501Z,39.40
2019-03-09T06:56:10.413Z,12.80
2019-03-09T06:57:18.571Z,8.53
2019-03-09T06:58:26.544Z,11.43
2019-03-09T06:59:34.467Z,69.87
2019-03-09T07:00:42.800Z,89.70
2019-03-09T07:01:51.053Z,28.93
2019-03-09T07:02:59.137Z,42.37
2019-03-09T07:04:07.127Z,30.90
2019-03-09T07:05:15.100Z,9.93
2019-03-09T07:06:23.553Z,8.43
2019-03-09T07:07:32.079Z,36.20
2019-03-09T07:08:40.241Z,89.00
2019-03-09T07:09:48.547Z,70.50
2019-03-09T07:10:56.564Z,15.37
2019-03-09T07:12:04.762Z,14.63
2019-03-09T07:13:12.874Z,15.73
2019-03-09T07:14:55.414Z,13.10
2019-03-09T07:16:03.722Z,9.03
2019-03-09T07:17:11.529Z,17.90
2019-03-09T07:18:19.372Z,10.00
2019-03-09T07:19:27.241Z,24.80
2019-03-09T07:20:35.317Z,57.53
2019-03-09T07:22:14.977Z,13.93
2019-03-09T07:23:23.268Z,32.03
2019-03-09T07:24:31.354Z,19.53
2019-03-09T07:25:39.220Z,69.90
2019-03-09T07:26:47.164Z,63.87
2019-03-09T07:28:05.241Z,11.90
2019-03-09T07:29:13.181Z,14.10
2019-03-09T07:30:21.169Z,10.67
2019-03-09T07:31:29.478Z,22.47
2019-03-09T07:32:37.786Z,57.03
2019-03-09T07:33:45.980Z,61.73
2019-03-09T07:34:54.074Z,4.57
2019-03-09T07:36:01.975Z,9.07
2019-03-09T07:37:09.871Z,10.67
2019-03-09T07:38:17.733Z,11.87
2019-03-09T07:39:25.706Z,10.87
2019-03-09T07:40:33.685Z,29.73
2019-03-09T07:41:42.030Z,60.30
2019-03-09T07:42:50.093Z,47.00
2019-03-09T07:43:58.139Z,8.57
2019-03-09T07:45:10.837Z,9.47
2019-03-09T07:46:18.676Z,9.17
2019-03-09T07:47:26.685Z,16.03
2019-03-09T07:48:34.569Z,25.90
2019-03-09T07:49:43.036Z,59.97
2019-03-09T07:50:50.909Z,43.07
2019-03-09T07:51:58.951Z,5.20
2019-03-09T07:53:06.902Z,7.97
2019-03-09T07:54:14.999Z,16.03
2019-03-09T07:55:23.941Z,48.67
2019-03-09T07:56:33.539Z,44.90
2019-03-09T07:57:41.578Z,55.77
2019-03-09T07:58:49.831Z,70.30
2019-03-09T07:59:57.831Z,20.40
2019-03-09T08:01:05.843Z,23.43
2019-03-09T08:02:14.620Z,7.60
2019-03-09T08:03:22.842Z,9.50
2019-03-09T08:04:30.928Z,7.23
2019-03-09T08:05:39.086Z,49.20
2019-03-09T08:07:49.849Z,58.87
2019-03-09T08:09:18.780Z,10.50
2019-03-09T08:10:29.524Z,18.10
2019-03-09T08:11:37.955Z,44.03
2019-03-09T08:12:46.177Z,52.00
2019-03-09T08:13:54.177Z,33.10
2019-03-09T08:15:02.135Z,8.67
2019-03-09T08:16:10.113Z,12.73
2019-03-09T08:17:18.103Z,20.70
2019-03-09T08:18:26.222Z,7.70
2019-03-09T08:19:34.068Z,12.30
2019-03-09T08:20:43.839Z,56.53
2019-03-09T08:21:52.031Z,57.87
2019-03-09T08:23:00.223Z,3.57
2019-03-09T08:24:08.338Z,13.07
2019-03-09T08:25:19.746Z,27.37
2019-03-09T08:26:27.775Z,12.47
2019-03-09T08:27:35.833Z,12.87
2019-03-09T08:28:43.767Z,62.00
2019-03-09T08:29:51.785Z,61.57
2019-03-09T08:30:59.811Z,17.40
2019-03-09T08:32:08.096Z,7.57
2019-03-09T08:33:15.990Z,14.63
2019-03-09T08:34:24.075Z,8.60
2019-03-09T08:35:32.090Z,7.87
2019-03-09T08:36:39.964Z,59.17
2019-03-09T08:37:48.681Z,74.70
2019-03-09T08:38:56.396Z,20.70
2019-03-09T08:40:09.386Z,4.47
2019-03-09T08:41:17.492Z,12.03
2019-03-09T08:42:25.562Z,20.93
2019-03-09T08:43:33.566Z,25.37
2019-03-09T08:44:41.443Z,80.40
2019-03-09T08:45:49.545Z,67.40
2019-03-09T08:46:57.694Z,16.03
2019-03-09T08:48:05.737Z,6.10
2019-03-09T08:49:13.973Z,4.40
2019-03-09T08:50:25.143Z,12.87
2019-03-09T08:51:33.028Z,55.57
2019-03-09T08:52:41.156Z,72.13
2019-03-09T08:53:49.068Z,105.17
2019-03-09T08:54:57.042Z,52.17
2019-03-09T08:56:05.642Z,233.73
2019-03-09T08:57:13.607Z,207.47
2019-03-09T08:58:21.645Z,140.87
2019-03-09T08:59:29.916Z,172.13
2019-03-09T09:00:37.900Z,126.27
2019-03-09T09:01:46.370Z,268.40
2019-03-09T09:03:01.458Z,248.43
2019-03-09T09:04:16.534Z,291.77
2019-03-09T09:05:28.217Z,296.37
2019-03-09T09:06:43.305Z,259.83
2019-03-09T09:07:55.243Z,116.93
2019-03-09T09:09:03.464Z,65.30
2019-03-09T09:10:12.480Z,99.77
2019-03-09T09:11:20.458Z,127.67
2019-03-09T09:12:28.443Z,180.40
2019-03-09T09:13:36.350Z,41.23
2019-03-09T09:14:44.397Z,41.27
2019-03-09T09:15:52.347Z,68.90
2019-03-09T09:17:00.451Z,27.60
2019-03-09T09:18:08.554Z,5.17
2019-03-09T09:19:16.950Z,63.33
2019-03-09T09:20:28.150Z,78.07
2019-03-09T09:21:36.220Z,12.50
2019-03-09T09:22:44.609Z,14.77
2019-03-09T09:23:52.660Z,28.80
2019-03-09T09:25:01.109Z,11.23
2019-03-09T09:26:09.164Z,4.27
2019-03-09T09:27:17.170Z,65.07
2019-03-09T09:28:25.132Z,69.03
2019-03-09T09:29:33.070Z,29.60
2019-03-09T09:30:40.993Z,14.80
2019-03-09T09:31:49.400Z,7.90
2019-03-09T09:32:57.379Z,33.83
2019-03-09T09:34:05.316Z,39.57
2019-03-09T09:35:14.819Z,36.73
2019-03-09T09:36:22.767Z,93.87
2019-03-09T09:37:31.014Z,105.17
2019-03-09T09:38:39.019Z,16.63
2019-03-09T09:39:47.106Z,15.40
2019-03-09T09:40:55.404Z,14.43
2019-03-09T09:42:03.515Z,7.70
2019-03-09T09:43:11.697Z,25.40
2019-03-09T09:44:19.991Z,68.90
2019-03-09T09:45:28.003Z,88.27
2019-03-09T09:46:35.970Z,18.20
2019-03-09T09:47:44.178Z,7.20
2019-03-09T09:48:52.376Z,12.60
2019-03-09T09:50:00.420Z,7.57
2019-03-09T09:51:08.480Z,24.10
2019-03-09T09:52:16.460Z,21.30
2019-03-09T09:53:24.632Z,93.83
2019-03-09T09:54:32.495Z,86.20
2019-03-09T09:55:40.587Z,21.73
2019-03-09T09:56:48.941Z,6.80
2019-03-09T09:57:56.959Z,14.93
2019-03-09T09:59:05.055Z,7.60
2019-03-09T10:00:21.747Z,7.33
2019-03-09T10:01:29.910Z,79.53
2019-03-09T10:02:38.033Z,9.37
2019-03-09T10:03:45.970Z,7.53
2019-03-09T10:04:54.027Z,4.17
2019-03-09T10:06:02.004Z,9.03
2019-03-09T10:07:10.236Z,40.53
2019-03-09T10:08:18.010Z,40.13
2019-03-09T10:09:26.212Z,77.90
2019-03-09T10:10:34.063Z,61.73
2019-03-09T10:11:41.978Z,11.93
2019-03-09T10:12:50.070Z,14.93
2019-03-09T10:13:58.093Z,11.73
2019-03-09T10:15:14.785Z,4.87
2019-03-09T10:16:23.187Z,54.67
2019-03-09T10:17:31.059Z,76.70
2019-03-09T10:18:39.411Z,4.50
2019-03-09T10:19:47.478Z,7.07
2019-03-09T10:20:55.559Z,2.33
2019-03-09T10:22:03.766Z,17.70
2019-03-09T10:23:11.832Z,4.73
2019-03-09T10:24:19.887Z,24.67
2019-03-09T10:25:27.946Z,74.60
2019-03-09T10:26:35.801Z,68.50
2019-03-09T10:27:44.278Z,9.83
2019-03-09T10:28:52.326Z,16.27
2019-03-09T10:30:00.474Z,9.87
2019-03-09T10:31:08.658Z,16.63
2019-03-09T10:32:16.728Z,12.93
2019-03-09T10:33:24.726Z,89.10
2019-03-09T10:34:32.721Z,124.27
2019-03-09T10:35:40.756Z,79.67
2019-03-09T10:36:48.871Z,71.87
2019-03-09T10:37:56.888Z,119.03
2019-03-09T10:39:05.602Z,95.10
2019-03-09T10:40:15.709Z,26.13
2019-03-09T10:41:23.672Z,78.10
2019-03-09T10:42:31.828Z,85.17
2019-03-09T10:43:39.942Z,31.20
2019-03-09T10:44:49.788Z,45.10
2019-03-09T10:45:58.089Z,5.87
2019-03-09T10:47:06.062Z,18.17
2019-03-09T10:48:14.025Z,22.00
2019-03-09T10:49:22.524Z,64.47
2019-03-09T10:50:30.642Z,96.20
2019-03-09T10:51:38.598Z,62.67
2019-03-09T10:52:46.435Z,35.40
2019-03-09T10:53:54.668Z,31.40
2019-03-09T10:55:02.668Z,58.57
2019-03-09T10:56:10.567Z,79.43
2019-03-09T10:57:18.544Z,19.30
2019-03-09T10:58:26.558Z,154.50
2019-03-09T10:59:34.593Z,109.77
2019-03-09T11:00:45.392Z,87.27
2019-03-09T11:01:53.384Z,161.77
2019-03-09T11:03:01.411Z,28.33
2019-03-09T11:04:09.644Z,9.57
2019-03-09T11:05:17.726Z,20.23
2019-03-09T11:06:25.638Z,61.93
2019-03-09T11:07:33.659Z,72.43
2019-03-09T11:08:41.462Z,30.77
2019-03-09T11:09:49.223Z,9.87
2019-03-09T11:10:57.187Z,4.97
2019-03-09T11:12:05.174Z,20.43
2019-03-09T11:13:13.174Z,9.37
2019-03-09T11:14:21.105Z,24.47
2019-03-09T11:15:29.378Z,75.10
2019-03-09T11:16:37.377Z,91.80
2019-03-09T11:17:45.452Z,53.60
2019-03-09T11:18:53.158Z,6.53
2019-03-09T11:20:01.173Z,27.60
2019-03-09T11:21:09.441Z,17.20
2019-03-09T11:22:17.249Z,17.63
2019-03-09T11:23:25.288Z,59.60
2019-03-09T11:24:33.275Z,69.60
2019-03-09T11:25:41.201Z,41.47
2019-03-09T11:26:49.416Z,32.90
2019-03-09T11:28:06.522Z,17.80
2019-03-09T11:29:14.531Z,18.50
2019-03-09T11:30:28.004Z,41.40
2019-03-09T11:31:36.512Z,134.90
2019-03-09T11:32:44.517Z,22.93
2019-03-09T11:33:52.665Z,14.40
2019-03-09T11:35:01.011Z,25.70
2019-03-09T11:36:09.138Z,12.17
2019-03-09T11:37:17.265Z,14.20
2019-03-09T11:38:25.742Z,71.97
2019-03-09T11:39:33.771Z,137.47
2019-03-09T11:40:41.901Z,40.80
2019-03-09T11:41:50.032Z,16.10
2019-03-09T11:42:58.420Z,13.20
2019-03-09T11:44:06.777Z,17.10
2019-03-09T11:45:19.621Z,10.97
2019-03-09T11:46:27.969Z,66.73
2019-03-09T11:47:35.881Z,72.93
2019-03-09T11:48:44.290Z,20.60
2019-03-09T11:49:52.960Z,14.13
2019-03-09T11:51:01.141Z,12.43
2019-03-09T11:52:16.317Z,9.07
2019-03-09T11:53:19.090Z,19.13
2019-03-09T11:54:27.069Z,67.57
2019-03-09T11:55:35.059Z,89.57
2019-03-09T11:56:43.067Z,28.97
2019-03-09T11:57:51.371Z,28.90
2019-03-09T11:58:59.362Z,18.43
2019-03-09T12:00:27.061Z,20.60
2019-03-09T12:01:35.052Z,82.80
2019-03-09T12:02:42.967Z,23.97
2019-03-09T12:03:50.986Z,12.17
2019-03-09T12:04:59.587Z,8.50
2019-03-09T12:06:07.711Z,12.17
2019-03-09T12:07:15.881Z,12.00
2019-03-09T12:08:24.313Z,52.77
2019-03-09T12:09:32.228Z,140.07
2019-03-09T12:10:40.609Z,154.47
2019-03-09T12:11:55.977Z,104.13
2019-03-09T12:13:04.276Z,113.00
2019-03-09T12:14:12.289Z,136.13
2019-03-09T12:15:20.481Z,100.20
2019-03-09T12:16:29.061Z,280.20
2019-03-09T12:17:37.135Z,223.83
2019-03-09T12:18:44.874Z,181.53
2019-03-09T12:19:52.878Z,125.60
2019-03-09T12:21:01.338Z,137.57
2019-03-09T12:22:09.578Z,245.07
2019-03-09T12:23:21.056Z,145.70
2019-03-09T12:24:28.931Z,191.43
2019-03-09T12:25:36.933Z,236.63
2019-03-09T12:26:44.892Z,115.67
2019-03-09T12:27:52.987Z,107.57
2019-03-09T12:29:01.017Z,75.97
2019-03-09T12:30:16.069Z,111.57
2019-03-09T12:31:24.154Z,62.93
2019-03-09T12:32:32.547Z,246.17
2019-03-09T12:33:40.664Z,236.50
2019-03-09T12:34:48.969Z,180.03
2019-03-09T12:35:56.877Z,182.33
2019-03-09T12:37:04.960Z,121.83
2019-03-09T12:38:12.988Z,120.97
2019-03-09T12:39:20.965Z,80.03
2019-03-09T12:40:29.030Z,64.00
2019-03-09T12:41:37.452Z,126.77
2019-03-09T12:42:45.646Z,26.50
2019-03-09T12:43:53.649Z,34.43
2019-03-09T12:45:01.617Z,9.57
2019-03-09T12:46:09.539Z,106.17
2019-03-09T12:47:19.016Z,95.33
2019-03-09T12:48:27.411Z,94.40
2019-03-09T12:49:35.463Z,145.53
2019-03-09T12:50:43.495Z,137.47
2019-03-09T12:51:51.655Z,134.43
2019-03-09T12:52:59.669Z,80.73
2019-03-09T12:54:07.813Z,119.77
2019-03-09T12:55:15.941Z,98.23
2019-03-09T12:56:24.242Z,79.97
2019-03-09T12:57:32.174Z,158.20
2019-03-09T12:58:40.071Z,146.03
2019-03-09T12:59:48.212Z,106.83
2019-03-09T13:00:56.324Z,106.73
2019-03-09T13:02:04.462Z,104.50
2019-03-09T13:03:12.478Z,104.77
2019-03-09T13:04:20.484Z,112.47
2019-03-09T13:05:28.672Z,160.67
2019-03-09T13:06:36.570Z,71.30
2019-03-09T13:07:44.548Z,48.97
2019-03-09T13:08:52.640Z,9.23
2019-03-09T13:10:00.897Z,8.40
2019-03-09T13:11:09.400Z,11.87
2019-03-09T13:12:17.233Z,10.23
2019-03-09T13:13:25.498Z,16.33
2019-03-09T13:14:33.492Z,93.80
2019-03-09T13:15:41.354Z,129.97
2019-03-09T13:16:49.294Z,84.17
2019-03-09T13:17:57.295Z,63.43
2019-03-09T13:19:05.449Z,32.20
2019-03-09T13:20:16.446Z,86.00
2019-03-09T13:21:24.717Z,118.63
2019-03-09T13:22:32.836Z,156.23
2019-03-09T13:23:41.126Z,134.43
2019-03-09T13:24:48.917Z,51.77
2019-03-09T13:25:56.782Z,18.53
2019-03-09T13:27:04.718Z,28.30
2019-03-09T13:28:13.108Z,60.83
2019-03-09T13:29:21.330Z,51.80
2019-03-09T13:30:29.419Z,51.07
2019-03-09T13:31:37.714Z,171.73
2019-03-09T13:32:45.997Z,157.17
2019-03-09T13:33:54.137Z,88.97
2019-03-09T13:35:02.503Z,14.43
2019-03-09T13:36:10.441Z,25.53
2019-03-09T13:37:18.302Z,67.07
2019-03-09T13:38:26.401Z,89.23
2019-03-09T13:39:34.487Z,140.20
2019-03-09T13:40:42.561Z,184.70
2019-03-09T13:41:50.526Z,126.43
2019-03-09T13:42:58.578Z,130.70
2019-03-09T13:44:07.078Z,125.03
2019-03-09T13:45:19.476Z,160.73
2019-03-09T13:46:27.914Z,56.53
2019-03-09T13:47:35.981Z,164.70
2019-03-09T13:48:44.050Z,179.47
2019-03-09T13:49:51.920Z,99.60
2019-03-09T13:50:59.856Z,74.00
2019-03-09T13:52:08.037Z,30.93
2019-03-09T13:53:15.873Z,48.63
2019-03-09T13:54:23.874Z,136.13
2019-03-09T13:55:31.803Z,62.17
2019-03-09T13:56:40.248Z,84.17
2019-03-09T13:57:48.493Z,60.53
2019-03-09T13:58:56.955Z,27.07
2019-03-09T14:00:10.889Z,26.73
2019-03-09T14:01:18.787Z,26.23
2019-03-09T14:02:26.784Z,55.27
2019-03-09T14:03:34.709Z,148.90
2019-03-09T14:04:42.757Z,177.43
2019-03-09T14:05:50.751Z,150.73
2019-03-09T14:06:58.869Z,128.50
2019-03-09T14:08:06.946Z,118.30
2019-03-09T14:09:15.141Z,105.67
2019-03-09T14:10:23.273Z,100.23
2019-03-09T14:11:31.446Z,103.37
2019-03-09T14:12:39.595Z,160.70
2019-03-09T14:13:47.663Z,170.33
2019-03-09T14:14:55.577Z,152.47
2019-03-09T14:16:03.443Z,156.40
2019-03-09T14:17:11.282Z,128.90
2019-03-09T14:18:19.461Z,155.73
2019-03-09T14:19:27.412Z,116.60
2019-03-09T14:20:35.833Z,117.40
2019-03-09T14:21:43.795Z,253.33
2019-03-09T14:22:51.691Z,117.90
2019-03-09T14:23:59.953Z,131.23
2019-03-09T14:25:11.783Z,97.07
2019-03-09T14:26:19.994Z,153.53
2019-03-09T14:27:28.194Z,66.47
2019-03-09T14:28:36.314Z,104.93
2019-03-09T14:29:44.213Z,119.03
2019-03-09T14:30:52.297Z,135.70
2019-03-09T14:32:00.470Z,140.30
2019-03-09T14:33:08.541Z,155.17
2019-03-09T14:34:16.439Z,149.03
2019-03-09T14:35:24.478Z,236.30
2019-03-09T14:36:32.704Z,191.60
2019-03-09T14:37:40.951Z,228.37
2019-03-09T14:38:49.053Z,260.17
2019-03-09T14:39:57.141Z,108.60
2019-03-09T14:41:05.262Z,49.13
2019-03-09T14:42:13.268Z,29.97
2019-03-09T14:43:21.228Z,96.80
2019-03-09T14:44:29.575Z,72.97
2019-03-09T14:45:37.552Z,84.87
2019-03-09T14:46:45.603Z,104.53
2019-03-09T14:47:53.802Z,68.13
2019-03-09T14:49:01.865Z,10.00